Time;durP1;ratioP1;P1;durP2;ratioP2;P2;SDS_P1;SDS_P2;PMS_P1;PMS_P2;Temp;Humidity;BMP_temperature;BMP_pressure;BME280_temperature;BME280_humidity;BME280_pressure;Samples;Min_cycle;Max_cycle;Signal;HPM_P1;HPM_P2
2023/05/19 16:08:39;;;;;;;14.93;4.75;;;23.90;90.50;;;;;;5149768;27;20384;-74
2023/05/19 16:11:43;;;;;;;16.80;4.07;;;23.70;90.20;;;;;;5116743;28;20452;-72
2023/05/19 16:14:47;;;;;;;15.13;3.75;;;23.70;90.50;;;;;;5115814;28;20039;-78
2023/05/19 16:17:52;;;;;;;12.68;3.67;;;23.60;90.60;;;;;;5128156;28;20040;-77
2023/05/19 16:20:56;;;;;;;12.63;3.40;;;23.70;91.00;;;;;;5127952;28;20031;-77
2023/05/19 16:24:00;;;;;;;9.73;3.47;;;23.60;90.80;;;;;;5095754;28;20062;-78
2023/05/19 16:27:04;;;;;;;18.83;3.85;;;23.60;90.80;;;;;;5107033;28;20067;-78
2023/05/19 16:30:08;;;;;;;15.50;3.72;;;23.60;90.90;;;;;;5084066;28;20195;-78
2023/05/19 16:33:12;;;;;;;14.65;3.60;;;23.60;90.70;;;;;;5108228;28;20168;-78
2023/05/19 16:36:16;;;;;;;13.07;3.92;;;23.50;91.20;;;;;;5108358;28;20035;-77
2023/05/19 16:39:20;;;;;;;11.50;3.72;;;23.50;91.00;;;;;;5095372;28;20590;-78
2023/05/19 16:42:24;;;;;;;17.17;4.10;;;23.40;90.90;;;;;;5095674;28;20522;-77
2023/05/19 16:45:28;;;;;;;16.70;4.25;;;23.30;91.00;;;;;;5108121;28;20427;-77
2023/05/19 16:48:32;;;;;;;15.25;3.60;;;23.30;91.30;;;;;;5107576;28;20050;-78
2023/05/19 16:51:36;;;;;;;11.43;4.03;;;23.30;91.20;;;;;;5107871;28;20111;-78
2023/05/19 16:54:40;;;;;;;13.57;4.03;;;23.40;91.10;;;;;;5106471;28;20045;-76
2023/05/19 16:57:45;;;;;;;11.25;3.65;;;23.30;91.10;;;;;;5095238;28;20055;-77
2023/05/19 17:00:52;;;;;;;9.38;3.38;;;23.30;91.20;;;;;;5107911;28;20050;-77
2023/05/19 17:03:56;;;;;;;13.25;4.18;;;23.30;91.20;;;;;;5107398;28;20373;-78
2023/05/19 17:07:00;;;;;;;14.13;3.92;;;23.20;91.20;;;;;;5094634;28;20215;-78
2023/05/19 17:10:05;;;;;;;17.77;4.78;;;23.10;91.30;;;;;;5107661;28;20055;-75
2023/05/19 17:13:10;;;;;;;14.70;4.05;;;23.10;91.70;;;;;;5107110;28;20051;-75
2023/05/19 17:16:14;;;;;;;10.27;4.20;;;23.00;91.80;;;;;;5107480;28;20047;-74
2023/05/19 17:19:18;;;;;;;10.63;4.07;;;22.80;92.00;;;;;;5097346;28;20393;-77
2023/05/19 17:22:22;;;;;;;14.63;4.10;;;22.70;92.30;;;;;;5093926;28;20051;-78
2023/05/19 17:25:31;;;;;;;13.57;3.50;;;22.70;92.50;;;;;;5081080;28;20043;-78
2023/05/19 17:28:35;;;;;;;11.52;3.78;;;22.70;92.50;;;;;;5093274;28;20158;-75
2023/05/19 17:31:38;;;;;;;11.32;3.63;;;22.60;92.60;;;;;;5093549;28;20102;-76
2023/05/19 17:34:42;;;;;;;15.38;4.07;;;22.50;92.80;;;;;;5093529;28;20047;-77
2023/05/19 17:37:46;;;;;;;11.98;3.50;;;22.50;92.90;;;;;;5093538;28;20495;-77
2023/05/19 17:40:52;;;;;;;16.08;3.97;;;22.40;92.70;;;;;;5093821;28;20411;-78
2023/05/19 17:43:56;;;;;;;13.85;4.38;;;22.40;93.10;;;;;;5093503;28;20399;-78
2023/05/19 17:47:01;;;;;;;11.02;4.13;;;22.30;93.20;;;;;;5094330;28;20051;-77
2023/05/19 17:50:05;;;;;;;14.32;4.47;;;22.20;93.30;;;;;;5093224;28;20629;-78
2023/05/19 17:53:10;;;;;;;8.18;4.57;;;22.20;93.50;;;;;;5081148;28;20066;-77
2023/05/19 17:56:14;;;;;;;41.50;19.15;;;22.10;93.60;;;;;;5093738;28;20036;-76
2023/05/19 17:59:18;;;;;;;11.75;4.38;;;22.00;93.70;;;;;;5093368;28;20047;-76
2023/05/19 18:02:23;;;;;;;11.18;3.72;;;22.00;93.70;;;;;;5093412;28;20043;-77
2023/05/19 18:05:27;;;;;;;8.70;4.25;;;22.00;93.60;;;;;;5093068;28;20055;-77
2023/05/19 18:08:32;;;;;;;15.30;3.90;;;21.90;93.50;;;;;;5092550;28;20078;-77
2023/05/19 18:11:36;;;;;;;10.88;4.00;;;21.90;93.60;;;;;;5092950;28;20043;-76
2023/05/19 18:14:40;;;;;;;15.43;4.00;;;21.90;93.50;;;;;;5080523;28;20047;-78
2023/05/19 18:17:45;;;;;;;12.35;4.03;;;21.90;92.90;;;;;;5092774;28;20063;-78
2023/05/19 18:20:49;;;;;;;15.70;3.90;;;21.90;92.90;;;;;;5092971;28;20494;-78
2023/05/19 18:23:53;;;;;;;9.93;3.90;;;21.90;92.90;;;;;;5080186;28;20043;-77
2023/05/19 18:26:57;;;;;;;16.27;4.70;;;21.90;92.80;;;;;;5092562;28;20047;-76
2023/05/19 18:30:01;;;;;;;13.15;3.83;;;21.80;93.00;;;;;;5079111;28;20047;-76
2023/05/19 18:33:06;;;;;;;7.15;3.83;;;21.70;93.20;;;;;;5092642;28;20047;-76
2023/05/19 18:36:10;;;;;;;10.88;3.90;;;21.70;93.10;;;;;;5068333;28;20048;-78
2023/05/19 18:39:14;;;;;;;7.35;3.47;;;21.70;93.20;;;;;;5092185;28;20047;-76
2023/05/19 18:42:18;;;;;;;11.38;4.07;;;21.60;93.30;;;;;;5080141;28;20032;-77
2023/05/19 18:45:22;;;;;;;8.85;4.28;;;21.60;93.30;;;;;;5092380;28;20043;-78
2023/05/19 18:48:26;;;;;;;8.77;3.60;;;21.60;93.30;;;;;;5091838;28;20056;-76
2023/05/19 18:51:31;;;;;;;10.57;3.97;;;21.70;93.40;;;;;;5080021;28;20036;-76
2023/05/19 18:54:36;;;;;;;12.68;3.97;;;21.60;93.20;;;;;;5092201;28;20054;-78
2023/05/19 18:57:40;;;;;;;14.40;3.90;;;21.60;93.10;;;;;;5091983;28;20411;-77
2023/05/19 19:00:44;;;;;;;13.35;3.65;;;21.60;93.00;;;;;;5092328;28;20047;-77
2023/05/19 19:03:48;;;;;;;13.15;3.85;;;21.70;93.00;;;;;;5091902;28;20043;-77
2023/05/19 19:06:52;;;;;;;12.48;3.90;;;21.60;92.70;;;;;;5079245;28;20055;-77
2023/05/19 19:09:56;;;;;;;12.45;3.63;;;21.60;92.80;;;;;;5092008;28;20204;-76
2023/05/19 19:12:59;;;;;;;12.18;4.28;;;21.60;93.00;;;;;;5091796;28;20051;-76
2023/05/19 19:16:04;;;;;;;9.05;4.10;;;21.60;92.90;;;;;;5091864;28;20058;-78
2023/05/19 19:19:08;;;;;;;13.98;3.72;;;21.50;92.90;;;;;;5091793;28;20036;-77
2023/05/19 19:22:12;;;;;;;9.35;3.90;;;21.50;92.90;;;;;;5091625;28;20050;-77
2023/05/19 19:25:16;;;;;;;11.73;4.20;;;21.50;92.90;;;;;;5091710;28;20036;-77
2023/05/19 19:28:20;;;;;;;13.60;4.20;;;21.50;92.90;;;;;;5091334;28;20051;-76
2023/05/19 19:31:31;;;;;;;17.27;4.10;;;21.50;92.90;;;;;;5091656;28;20059;-76
2023/05/19 19:34:36;;;;;;;12.20;3.80;;;21.50;92.90;;;;;;5091394;28;20039;-76
2023/05/19 19:37:39;;;;;;;12.60;3.97;;;21.60;92.70;;;;;;5091519;28;20038;-75
2023/05/19 19:40:43;;;;;;;5.72;3.53;;;21.60;92.60;;;;;;5091719;28;20055;-76
2023/05/19 19:43:47;;;;;;;15.02;3.92;;;21.60;92.60;;;;;;5091391;28;20032;-76
2023/05/19 19:46:51;;;;;;;8.02;3.55;;;21.60;92.50;;;;;;5078821;28;20047;-77
2023/05/19 19:49:55;;;;;;;13.70;3.42;;;21.60;92.10;;;;;;5079017;28;20511;-77
2023/05/19 19:52:59;;;;;;;9.68;3.10;;;21.60;92.10;;;;;;5091477;28;20047;-76
2023/05/19 19:56:04;;;;;;;9.27;3.40;;;21.60;92.00;;;;;;5091192;28;20043;-76
2023/05/19 19:59:11;;;;;;;10.65;3.65;;;21.60;92.00;;;;;;5091010;28;20044;-76
2023/05/19 20:02:15;;;;;;;11.98;3.75;;;21.70;92.10;;;;;;5091040;28;20039;-76
2023/05/19 20:05:20;;;;;;;12.80;3.83;;;21.70;92.00;;;;;;5091341;28;20039;-77
2023/05/19 20:08:24;;;;;;;14.77;3.78;;;21.70;92.00;;;;;;5090552;28;20079;-77
2023/05/19 20:11:28;;;;;;;9.95;3.90;;;21.70;92.30;;;;;;5078651;28;20537;-76
2023/05/19 20:14:32;;;;;;;10.95;3.85;;;21.60;92.30;;;;;;5078698;28;20040;-76
2023/05/19 20:17:37;;;;;;;12.02;3.75;;;21.50;92.50;;;;;;5078422;28;20043;-76
2023/05/19 20:20:41;;;;;;;12.95;4.13;;;21.50;92.30;;;;;;5066970;28;20043;-76
2023/05/19 20:23:45;;;;;;;13.40;4.00;;;21.50;92.50;;;;;;5091068;28;20059;-75
2023/05/19 20:26:49;;;;;;;11.23;3.15;;;21.50;92.50;;;;;;5090781;28;20137;-76
2023/05/19 20:29:53;;;;;;;17.83;3.97;;;21.50;91.70;;;;;;5091028;28;20051;-77
2023/05/19 20:32:57;;;;;;;5.80;2.92;;;21.50;91.70;;;;;;5078530;28;20491;-77
2023/05/19 20:36:02;;;;;;;9.90;3.22;;;21.50;91.70;;;;;;5090927;28;20387;-77
2023/05/19 20:39:08;;;;;;;11.98;3.22;;;21.40;91.80;;;;;;5090772;28;20516;-78
2023/05/19 20:42:12;;;;;;;11.35;3.78;;;21.30;91.90;;;;;;5090793;28;20043;-75
2023/05/19 20:45:17;;;;;;;7.93;3.08;;;21.30;91.70;;;;;;5078291;28;20694;-77
2023/05/19 20:48:21;;;;;;;8.63;2.97;;;21.30;91.70;;;;;;5090534;28;20048;-76
2023/05/19 20:51:26;;;;;;;9.90;3.28;;;21.20;91.70;;;;;;5066679;28;20387;-76
2023/05/19 20:54:30;;;;;;;8.27;2.80;;;21.20;91.90;;;;;;5093081;28;20043;-75
2023/05/19 20:57:34;;;;;;;9.73;3.00;;;21.20;91.90;;;;;;5094353;28;20033;-76
2023/05/19 21:00:38;;;;;;;7.85;2.97;;;21.20;91.70;;;;;;5081730;28;20036;-76
2023/05/19 21:03:42;;;;;;;9.70;3.38;;;21.20;91.80;;;;;;5094586;28;20066;-76
2023/05/19 21:06:46;;;;;;;11.05;3.25;;;21.30;91.90;;;;;;5094278;28;20044;-75
2023/05/19 21:09:51;;;;;;;11.98;3.30;;;21.20;92.00;;;;;;5081717;28;20506;-75
2023/05/19 21:12:57;;;;;;;12.82;3.72;;;21.20;92.10;;;;;;5094264;28;20379;-75
2023/05/19 21:16:01;;;;;;;7.15;3.15;;;21.20;92.20;;;;;;5094068;28;20047;-75
2023/05/19 21:19:05;;;;;;;11.15;2.95;;;21.20;92.20;;;;;;5093703;28;20555;-75
2023/05/19 21:22:10;;;;;;;10.85;3.30;;;21.20;92.30;;;;;;5093776;28;20047;-75
2023/05/19 21:25:15;;;;;;;7.90;3.08;;;21.10;92.30;;;;;;5093778;28;20047;-75
2023/05/19 21:28:22;;;;;;;10.25;3.55;;;21.20;92.30;;;;;;5093647;28;20055;-75
2023/05/19 21:31:26;;;;;;;9.40;3.17;;;21.20;92.30;;;;;;5093719;28;20047;-76
2023/05/19 21:34:30;;;;;;;10.38;3.25;;;21.20;92.10;;;;;;5093783;28;20040;-75
2023/05/19 21:37:34;;;;;;;9.68;2.70;;;21.10;91.70;;;;;;5093712;28;20152;-75
2023/05/19 21:40:38;;;;;;;13.23;3.35;;;21.10;91.70;;;;;;5093396;28;20044;-76
2023/05/19 21:43:42;;;;;;;13.65;2.90;;;21.10;91.40;;;;;;5093428;28;20043;-78
2023/05/19 21:46:46;;;;;;;10.60;3.33;;;21.10;91.00;;;;;;5093514;28;20387;-77
2023/05/19 21:49:50;;;;;;;10.25;3.63;;;21.10;90.90;;;;;;5093444;28;20411;-76
2023/05/19 21:52:54;;;;;;;7.45;3.33;;;21.10;91.00;;;;;;5093403;28;20663;-76
2023/05/19 21:55:58;;;;;;;10.85;3.72;;;21.00;91.20;;;;;;5093360;28;20067;-77
2023/05/19 21:59:02;;;;;;;10.60;3.00;;;21.00;91.20;;;;;;5093101;28;20045;-76
2023/05/19 22:02:06;;;;;;;9.45;3.00;;;21.00;90.80;;;;;;5093329;28;20544;-78
2023/05/19 22:05:10;;;;;;;9.07;2.80;;;21.10;90.40;;;;;;5080362;28;20144;-76
2023/05/19 22:08:14;;;;;;;13.25;3.45;;;21.10;90.40;;;;;;5092595;28;20398;-77
2023/05/19 22:11:18;;;;;;;17.85;2.80;;;21.20;90.10;;;;;;5093102;28;20641;-76
2023/05/19 22:14:22;;;;;;;10.15;3.13;;;21.20;90.00;;;;;;5092948;28;20106;-76
2023/05/19 22:17:27;;;;;;;7.50;2.63;;;21.20;90.00;;;;;;5092857;28;20046;-76
2023/05/19 22:20:31;;;;;;;12.65;3.28;;;21.20;90.30;;;;;;5092793;28;20039;-74
2023/05/19 22:23:35;;;;;;;7.70;2.92;;;21.20;90.30;;;;;;5092954;28;20050;-78
2023/05/19 22:26:41;;;;;;;17.63;3.50;;;21.10;90.50;;;;;;5092517;28;20052;-77
2023/05/19 22:29:45;;;;;;;10.88;3.20;;;21.10;90.80;;;;;;5092802;28;20055;-77
2023/05/19 22:32:49;;;;;;;11.68;3.22;;;21.00;91.80;;;;;;5068732;28;20043;-75
2023/05/19 22:35:53;;;;;;;10.20;3.03;;;20.90;93.40;;;;;;5092651;28;20502;-76
2023/05/19 22:38:57;;;;;;;13.40;3.65;;;20.60;93.90;;;;;;5092607;28;20043;-76
2023/05/19 22:42:01;;;;;;;9.35;3.35;;;20.50;94.50;;;;;;5092723;28;20043;-76
2023/05/19 22:45:05;;;;;;;9.05;3.90;;;20.40;95.00;;;;;;5079859;28;20542;-76
2023/05/19 22:48:10;;;;;;;11.15;3.35;;;20.10;95.80;;;;;;5092154;28;20036;-76
2023/05/19 22:51:14;;;;;;;10.15;3.70;;;20.00;96.50;;;;;;5092404;28;20055;-75
2023/05/19 22:54:18;;;;;;;9.18;3.40;;;19.90;96.70;;;;;;5092221;28;20047;-76
2023/05/19 22:57:22;;;;;;;14.63;4.25;;;19.80;97.20;;;;;;5091887;28;20047;-77
2023/05/19 23:00:25;;;;;;;7.13;3.45;;;19.70;97.50;;;;;;5091622;28;20039;-77
2023/05/19 23:03:30;;;;;;;9.95;3.83;;;19.70;97.40;;;;;;5092007;28;20043;-76
2023/05/19 23:06:34;;;;;;;14.02;3.97;;;19.70;97.50;;;;;;5091929;28;20063;-74
2023/05/19 23:09:37;;;;;;;11.30;3.95;;;19.70;97.60;;;;;;5091704;28;20048;-75
2023/05/19 23:12:41;;;;;;;10.55;4.38;;;19.80;97.70;;;;;;5091840;28;20414;-76
2023/05/19 23:15:47;;;;;;;10.38;4.07;;;19.90;98.20;;;;;;5091483;28;20047;-75
2023/05/19 23:18:51;;;;;;;8.80;4.50;;;19.90;98.10;;;;;;5091695;28;20039;-75
2023/05/19 23:21:55;;;;;;;10.60;4.15;;;19.80;98.50;;;;;;5067325;28;20039;-76
2023/05/19 23:25:00;;;;;;;14.32;4.65;;;19.70;98.80;;;;;;5091856;28;20043;-75
2023/05/19 23:28:08;;;;;;;14.18;4.88;;;19.60;99.10;;;;;;5091304;28;20047;-74
2023/05/19 23:31:12;;;;;;;11.77;4.88;;;19.60;99.70;;;;;;5091793;28;20047;-75
2023/05/19 23:34:16;;;;;;;13.13;5.68;;;19.60;99.90;;;;;;5091453;28;20039;-75
2023/05/19 23:37:20;;;;;;;12.57;5.60;;;19.60;99.90;;;;;;5091215;28;20039;-76
2023/05/19 23:40:24;;;;;;;14.68;5.40;;;19.40;99.90;;;;;;5091779;28;20050;-76
2023/05/19 23:43:28;;;;;;;13.63;5.25;;;19.20;99.90;;;;;;5091175;28;20039;-76
2023/05/19 23:46:31;;;;;;;12.73;5.25;;;19.10;99.90;;;;;;5091679;28;20645;-76
2023/05/19 23:49:35;;;;;;;15.75;5.63;;;19.10;99.90;;;;;;5078890;28;20063;-77
2023/05/19 23:52:39;;;;;;;11.38;4.70;;;19.10;99.90;;;;;;5091335;28;20051;-77
2023/05/19 23:55:43;;;;;;;12.15;4.70;;;19.00;99.90;;;;;;5079168;28;20043;-77
2023/05/19 23:58:47;;;;;;;9.52;4.97;;;18.90;99.90;;;;;;5091407;28;20043;-77
